createdAt,value
2018-05-17T00:00:37.431Z,13.02
2018-05-17T00:01:37.422Z,13.16
2018-05-17T00:02:37.411Z,13.29
2018-05-17T00:03:37.389Z,13.30
2018-05-17T00:04:37.384Z,13.32
2018-05-17T00:05:37.360Z,13.35
2018-05-17T00:06:37.341Z,13.35
2018-05-17T00:07:37.319Z,13.24
2018-05-17T00:08:37.310Z,13.20
2018-05-17T00:09:37.290Z,13.17
2018-05-17T00:10:37.283Z,13.02
2018-05-17T00:11:37.258Z,13.02
2018-05-17T00:12:37.251Z,12.99
2018-05-17T00:13:37.232Z,12.99
2018-05-17T00:14:37.219Z,13.02
2018-05-17T00:15:37.201Z,12.95
2018-05-17T00:16:37.186Z,13.04
2018-05-17T00:17:37.172Z,13.04
2018-05-17T00:18:37.155Z,12.95
2018-05-17T00:19:37.140Z,12.90
2018-05-17T00:20:37.117Z,12.96
2018-05-17T00:21:37.107Z,12.90
2018-05-17T00:22:37.091Z,12.95
2018-05-17T00:23:37.082Z,12.93
2018-05-17T00:24:37.060Z,12.91
2018-05-17T00:25:37.049Z,12.99
2018-05-17T00:26:37.026Z,12.73
2018-05-17T00:27:37.008Z,12.81
2018-05-17T00:28:37.035Z,12.63
2018-05-17T00:29:36.992Z,12.79
2018-05-17T00:30:36.971Z,12.73
2018-05-17T00:31:36.953Z,12.76
2018-05-17T00:32:36.939Z,12.66
2018-05-17T00:33:36.916Z,12.69
2018-05-17T00:34:36.905Z,12.62
2018-05-17T00:35:36.885Z,12.66
2018-05-17T00:36:36.882Z,12.65
2018-05-17T00:37:36.859Z,12.55
2018-05-17T00:38:36.838Z,12.61
2018-05-17T00:39:36.822Z,12.63
2018-05-17T00:40:36.805Z,12.62
2018-05-17T00:41:36.792Z,12.58
2018-05-17T00:42:36.812Z,12.48
2018-05-17T00:43:36.758Z,12.62
2018-05-17T00:44:36.739Z,12.51
2018-05-17T00:45:36.739Z,12.65
2018-05-17T00:46:36.867Z,12.59
2018-05-17T00:47:36.697Z,12.54
2018-05-17T00:48:36.777Z,12.65
2018-05-17T00:49:36.671Z,12.66
2018-05-17T00:50:36.751Z,12.53
2018-05-17T00:51:36.628Z,12.58
2018-05-17T00:52:36.719Z,12.50
2018-05-17T00:53:36.597Z,12.50
2018-05-17T00:54:36.684Z,12.55
2018-05-17T00:55:36.573Z,12.61
2018-05-17T00:56:36.652Z,12.66
2018-05-17T00:57:36.541Z,12.76
2018-05-17T00:58:36.572Z,12.73
2018-05-17T00:59:36.506Z,12.79
2018-05-17T01:00:36.493Z,12.79
2018-05-17T01:01:36.483Z,12.95
2018-05-17T01:02:36.458Z,12.98
2018-05-17T01:03:36.442Z,12.96
2018-05-17T01:04:36.430Z,13.02
2018-05-17T01:05:36.414Z,12.93
2018-05-17T01:06:36.394Z,12.96
2018-05-17T01:07:36.371Z,13.02
2018-05-17T01:08:36.363Z,12.87
2018-05-17T01:09:36.343Z,12.99
2018-05-17T01:10:36.334Z,12.95
2018-05-17T01:11:36.307Z,13.01
2018-05-17T01:12:36.297Z,13.06
2018-05-17T01:13:36.281Z,12.99
2018-05-17T01:14:36.263Z,12.98
2018-05-17T01:15:36.247Z,13.04
2018-05-17T01:16:36.231Z,12.98
2018-05-17T01:17:36.222Z,12.95
2018-05-17T01:18:36.201Z,13.05
2018-05-17T01:19:36.183Z,12.93
2018-05-17T01:20:36.167Z,12.96
2018-05-17T01:21:36.158Z,12.96
2018-05-17T01:22:36.142Z,13.08
2018-05-17T01:23:36.123Z,13.11
2018-05-17T01:24:36.113Z,13.05
2018-05-17T01:25:36.091Z,13.14
2018-05-17T01:26:36.077Z,13.16
2018-05-17T01:27:36.054Z,13.21
2018-05-17T01:28:36.041Z,13.29
2018-05-17T01:29:36.035Z,13.26
2018-05-17T01:30:36.021Z,13.21
2018-05-17T01:31:35.996Z,13.27
2018-05-17T01:32:35.986Z,13.27
2018-05-17T01:33:35.965Z,13.21
2018-05-17T01:34:35.960Z,13.19
2018-05-17T01:35:35.934Z,13.14
2018-05-17T01:36:35.923Z,13.04
2018-05-17T01:37:35.907Z,12.99
2018-05-17T01:38:35.889Z,12.98
2018-05-17T01:39:35.870Z,13.05
2018-05-17T01:40:35.847Z,12.96
2018-05-17T01:41:35.835Z,12.96
2018-05-17T01:42:35.829Z,13.06
2018-05-17T01:43:35.821Z,12.96
2018-05-17T01:44:35.790Z,12.93
2018-05-17T01:45:35.777Z,12.96
2018-05-17T01:46:35.780Z,12.90
2018-05-17T01:47:35.745Z,12.88
2018-05-17T01:48:35.735Z,12.95
2018-05-17T01:49:35.711Z,12.86
2018-05-17T01:50:35.707Z,12.80
2018-05-17T01:51:35.675Z,12.86
2018-05-17T01:52:35.658Z,12.84
2018-05-17T01:53:35.655Z,12.76
2018-05-17T01:54:35.649Z,12.86
2018-05-17T01:55:35.621Z,12.83
2018-05-17T01:56:35.607Z,12.80
2018-05-17T01:57:35.585Z,12.84
2018-05-17T01:58:35.571Z,12.86
2018-05-17T01:59:35.552Z,12.84
2018-05-17T02:00:35.540Z,12.73
2018-05-17T02:01:35.532Z,12.80
2018-05-17T02:02:35.508Z,12.77
2018-05-17T02:03:35.486Z,12.68
2018-05-17T02:04:35.482Z,12.66
2018-05-17T02:05:35.458Z,12.65
2018-05-17T02:06:35.444Z,12.50
2018-05-17T02:07:35.430Z,12.51
2018-05-17T02:08:35.410Z,12.28
2018-05-17T02:09:35.393Z,12.29
2018-05-17T02:10:35.378Z,12.33
2018-05-17T02:11:35.363Z,12.26
2018-05-17T02:12:35.353Z,12.29
2018-05-17T02:13:35.333Z,12.43
2018-05-17T02:14:35.306Z,12.44
2018-05-17T02:15:35.297Z,12.47
2018-05-17T02:16:35.291Z,12.47
2018-05-17T02:17:35.270Z,12.48
2018-05-17T02:18:35.253Z,12.46
2018-05-17T02:19:35.238Z,12.50
2018-05-17T02:20:35.219Z,12.55
2018-05-17T02:21:35.210Z,12.53
2018-05-17T02:22:35.183Z,12.51
2018-05-17T02:23:35.164Z,12.63
2018-05-17T02:24:35.145Z,12.55
2018-05-17T02:25:35.138Z,12.53
2018-05-17T02:26:35.119Z,12.44
2018-05-17T02:27:35.102Z,12.44
2018-05-17T02:28:35.087Z,12.48
2018-05-17T02:29:35.068Z,12.50
2018-05-17T02:30:35.052Z,12.63
2018-05-17T02:31:35.035Z,12.55
2018-05-17T02:32:35.019Z,12.61
2018-05-17T02:33:35.006Z,12.59
2018-05-17T02:34:34.991Z,12.63
2018-05-17T02:35:34.975Z,12.63
2018-05-17T02:36:34.961Z,12.61
2018-05-17T02:37:34.943Z,12.65
2018-05-17T02:38:34.935Z,12.63
2018-05-17T02:39:34.912Z,12.72
2018-05-17T02:40:34.895Z,12.72
2018-05-17T02:41:34.882Z,12.76
2018-05-17T02:42:34.864Z,12.73
2018-05-17T02:43:34.848Z,12.81
2018-05-17T02:44:34.833Z,12.83
2018-05-17T02:45:34.807Z,12.80
2018-05-17T02:46:34.801Z,12.87
2018-05-17T02:47:34.776Z,12.87
2018-05-17T02:48:34.766Z,12.86
2018-05-17T02:49:34.747Z,12.72
2018-05-17T02:50:34.738Z,12.83
2018-05-17T02:51:34.718Z,12.84
2018-05-17T02:52:34.696Z,12.88
2018-05-17T02:53:34.684Z,12.73
2018-05-17T02:54:34.670Z,12.68
2018-05-17T02:55:34.653Z,12.63
2018-05-17T02:56:34.650Z,12.48
2018-05-17T02:57:34.623Z,12.63
2018-05-17T02:58:34.608Z,12.61
2018-05-17T02:59:34.585Z,12.65
2018-05-17T03:00:34.576Z,12.69
2018-05-17T03:01:34.558Z,12.69
2018-05-17T03:02:34.547Z,12.61
2018-05-17T03:03:34.519Z,12.76
2018-05-17T03:04:34.508Z,12.84
2018-05-17T03:05:34.485Z,12.84
2018-05-17T03:06:34.473Z,12.81
2018-05-17T03:07:34.458Z,12.86
2018-05-17T03:08:34.439Z,12.83
2018-05-17T03:09:34.425Z,12.87
2018-05-17T03:10:34.410Z,12.72
2018-05-17T03:11:34.397Z,12.79
2018-05-17T03:12:34.379Z,12.80
2018-05-17T03:13:34.367Z,12.80
2018-05-17T03:14:34.352Z,12.63
2018-05-17T03:15:34.334Z,12.71
2018-05-17T03:16:34.314Z,12.69
2018-05-17T03:17:34.294Z,12.68
2018-05-17T03:18:34.278Z,12.55
2018-05-17T03:19:34.269Z,12.71
2018-05-17T03:20:34.254Z,12.69
2018-05-17T03:21:34.228Z,12.69
2018-05-17T03:22:34.211Z,12.72
2018-05-17T03:23:34.199Z,12.68
2018-05-17T03:24:34.186Z,12.68
2018-05-17T03:25:34.170Z,12.66
2018-05-17T03:26:34.154Z,12.72
2018-05-17T03:27:34.243Z,12.69
2018-05-17T03:28:34.119Z,12.69
2018-05-17T03:29:34.161Z,12.65
2018-05-17T03:30:34.084Z,12.58
2018-05-17T03:31:34.078Z,12.41
2018-05-17T03:32:34.056Z,12.29
2018-05-17T03:33:34.043Z,12.28
2018-05-17T03:34:34.024Z,12.26
2018-05-17T03:35:34.004Z,12.28
2018-05-17T03:36:33.983Z,12.26
2018-05-17T03:37:33.973Z,12.18
2018-05-17T03:38:33.955Z,12.26
2018-05-17T03:39:34.033Z,12.21
2018-05-17T03:40:33.918Z,12.25
2018-05-17T03:41:33.960Z,12.32
2018-05-17T03:42:33.887Z,12.35
2018-05-17T03:43:33.897Z,12.40
2018-05-17T03:44:33.861Z,12.36
2018-05-17T03:45:33.896Z,12.35
2018-05-17T03:46:33.826Z,12.33
2018-05-17T03:47:33.803Z,12.47
2018-05-17T03:48:33.794Z,12.35
2018-05-17T03:49:33.884Z,12.32
2018-05-17T03:50:33.762Z,12.33
2018-05-17T03:51:33.746Z,12.23
2018-05-17T03:52:33.736Z,12.29
2018-05-17T03:53:33.708Z,12.38
2018-05-17T03:54:33.695Z,12.35
2018-05-17T03:55:33.679Z,12.38
2018-05-17T03:56:33.657Z,12.32
2018-05-17T03:57:33.646Z,12.46
2018-05-17T03:58:33.634Z,12.47
2018-05-17T03:59:33.665Z,12.47
2018-05-17T04:00:33.597Z,12.53
2018-05-17T04:01:33.576Z,12.62
2018-05-17T04:02:33.564Z,12.63
2018-05-17T04:03:33.549Z,12.66
2018-05-17T04:04:33.534Z,12.62
2018-05-17T04:05:33.515Z,12.43
2018-05-17T04:06:33.502Z,12.44
2018-05-17T04:07:33.481Z,12.44
2018-05-17T04:08:33.518Z,12.50
2018-05-17T04:09:33.450Z,12.50
2018-05-17T04:10:33.438Z,12.58
2018-05-17T04:11:33.430Z,12.48
2018-05-17T04:12:33.406Z,12.55
2018-05-17T04:13:33.388Z,12.48
2018-05-17T04:14:33.368Z,12.61
2018-05-17T04:15:33.353Z,12.66
2018-05-17T04:16:33.336Z,12.72
2018-05-17T04:17:33.321Z,12.62
2018-05-17T04:18:33.304Z,12.68
2018-05-17T04:19:33.288Z,12.73
2018-05-17T04:20:33.273Z,12.81
2018-05-17T04:21:33.255Z,12.71
2018-05-17T04:22:33.243Z,12.72
2018-05-17T04:23:33.227Z,12.76
2018-05-17T04:24:33.215Z,12.77
2018-05-17T04:25:33.192Z,12.73
2018-05-17T04:26:33.180Z,12.68
2018-05-17T04:27:33.162Z,12.62
2018-05-17T04:28:33.144Z,12.46
2018-05-17T04:29:33.130Z,12.43
2018-05-17T04:30:33.109Z,12.36
2018-05-17T04:31:33.090Z,12.32
2018-05-17T04:32:33.076Z,12.33
2018-05-17T04:33:33.060Z,12.22
2018-05-17T04:34:33.052Z,12.22
2018-05-17T04:35:33.034Z,12.29
2018-05-17T04:36:33.015Z,12.35
2018-05-17T04:37:32.998Z,12.48
2018-05-17T04:38:33.011Z,12.58
2018-05-17T04:39:32.964Z,12.61
2018-05-17T04:40:33.025Z,12.54
2018-05-17T04:41:32.931Z,12.43
2018-05-17T04:42:32.915Z,12.50
2018-05-17T04:43:32.947Z,12.62
2018-05-17T04:44:32.888Z,12.65
2018-05-17T04:45:32.870Z,12.76
2018-05-17T04:46:32.848Z,12.65
2018-05-17T04:47:32.836Z,12.69
2018-05-17T04:48:32.819Z,12.71
2018-05-17T04:49:32.802Z,12.68
2018-05-17T04:50:32.787Z,12.62
2018-05-17T04:51:32.768Z,12.72
2018-05-17T04:52:32.760Z,12.81
2018-05-17T04:53:32.742Z,12.88
2018-05-17T04:54:32.723Z,12.88
2018-05-17T04:55:32.697Z,12.96
2018-05-17T04:56:32.688Z,12.96
2018-05-17T04:57:32.668Z,12.96
2018-05-17T04:58:32.659Z,13.01
2018-05-17T04:59:32.646Z,12.99
2018-05-17T05:00:32.623Z,12.87
2018-05-17T05:01:32.607Z,12.93
2018-05-17T05:02:32.607Z,13.05
2018-05-17T05:03:32.576Z,12.95
2018-05-17T05:04:32.556Z,12.98
2018-05-17T05:05:32.555Z,13.02
2018-05-17T05:06:32.532Z,13.02
2018-05-17T05:07:32.518Z,13.04
2018-05-17T05:08:32.499Z,13.11
2018-05-17T05:09:32.599Z,12.96
2018-05-17T05:10:32.472Z,12.91
2018-05-17T05:11:32.450Z,12.93
2018-05-17T05:12:32.434Z,13.08
2018-05-17T05:13:32.419Z,12.98
2018-05-17T05:14:32.402Z,12.88
2018-05-17T05:15:32.389Z,12.90
2018-05-17T05:16:32.376Z,12.84
2018-05-17T05:17:32.360Z,12.93
2018-05-17T05:18:32.338Z,13.02
2018-05-17T05:19:32.319Z,12.99
2018-05-17T05:20:32.306Z,13.05
2018-05-17T05:21:32.293Z,13.08
2018-05-17T05:22:32.273Z,13.06
2018-05-17T05:23:32.256Z,13.06
2018-05-17T05:24:32.240Z,13.08
2018-05-17T05:25:32.227Z,13.01
2018-05-17T05:26:32.209Z,13.02
2018-05-17T05:27:32.233Z,12.88
2018-05-17T05:28:32.377Z,12.91
2018-05-17T05:29:32.156Z,12.88
2018-05-17T05:30:32.150Z,12.87
2018-05-17T05:31:32.188Z,12.87
2018-05-17T05:32:32.195Z,12.77
2018-05-17T05:33:32.099Z,12.79
2018-05-17T05:34:32.091Z,12.80
2018-05-17T05:35:32.068Z,12.63
2018-05-17T05:36:32.154Z,12.79
2018-05-17T05:37:32.065Z,12.79
2018-05-17T05:38:32.020Z,12.83
2018-05-17T05:39:31.997Z,12.86
2018-05-17T05:40:32.029Z,12.95
2018-05-17T05:41:31.969Z,12.98
2018-05-17T05:42:31.959Z,12.98
2018-05-17T05:43:31.944Z,12.95
2018-05-17T05:44:31.925Z,13.02
2018-05-17T05:45:31.911Z,13.02
2018-05-17T05:46:31.892Z,13.05
2018-05-17T05:47:31.882Z,12.98
2018-05-17T05:48:31.860Z,13.13
2018-05-17T05:49:31.930Z,13.19
2018-05-17T05:50:31.831Z,13.23
2018-05-17T05:51:31.819Z,13.26
2018-05-17T05:52:31.797Z,13.27
2018-05-17T05:53:31.783Z,13.20
2018-05-17T05:54:31.771Z,13.20
2018-05-17T05:55:31.748Z,13.14
2018-05-17T05:56:31.742Z,13.13
2018-05-17T05:57:31.722Z,13.08
2018-05-17T05:58:31.704Z,13.01
2018-05-17T05:59:31.707Z,13.06
2018-05-17T06:00:31.671Z,12.96
2018-05-17T06:01:31.657Z,12.98
2018-05-17T06:02:31.644Z,12.95
2018-05-17T06:03:31.629Z,13.02
2018-05-17T06:04:31.608Z,13.06
2018-05-17T06:05:31.600Z,13.01
2018-05-17T06:06:31.583Z,12.99
2018-05-17T06:07:31.564Z,12.95
2018-05-17T06:08:31.548Z,12.95
2018-05-17T06:09:31.529Z,12.95
2018-05-17T06:10:31.523Z,12.93
2018-05-17T06:11:31.500Z,13.02
2018-05-17T06:12:31.493Z,13.04
2018-05-17T06:13:31.468Z,13.06
2018-05-17T06:14:31.453Z,13.17
2018-05-17T06:15:31.440Z,13.16
2018-05-17T06:16:31.424Z,13.26
2018-05-17T06:17:31.456Z,13.26
2018-05-17T06:18:31.391Z,13.24
2018-05-17T06:19:31.372Z,13.32
2018-05-17T06:20:31.363Z,13.39
2018-05-17T06:21:31.376Z,13.32
2018-05-17T06:22:31.331Z,13.42
2018-05-17T06:23:31.314Z,13.51
2018-05-17T06:24:31.303Z,13.47
2018-05-17T06:25:31.282Z,13.29
2018-05-17T06:26:31.271Z,13.30
2018-05-17T06:27:31.252Z,13.32
2018-05-17T06:28:31.232Z,13.35
2018-05-17T06:29:31.220Z,13.35
2018-05-17T06:30:31.204Z,13.30
2018-05-17T06:31:31.185Z,13.30
2018-05-17T06:32:31.172Z,13.29
2018-05-17T06:33:31.157Z,13.29
2018-05-17T06:34:31.136Z,13.20
2018-05-17T06:35:31.128Z,13.23
2018-05-17T06:36:31.109Z,13.36
2018-05-17T06:37:31.131Z,13.45
2018-05-17T06:38:31.076Z,13.51
2018-05-17T06:39:31.093Z,13.61
2018-05-17T06:40:31.050Z,13.55
2018-05-17T06:41:31.035Z,13.58
2018-05-17T06:42:31.021Z,13.75
2018-05-17T06:43:30.997Z,13.71
2018-05-17T06:44:30.991Z,13.80
2018-05-17T06:45:30.973Z,13.93
2018-05-17T06:46:30.958Z,13.91
2018-05-17T06:47:30.940Z,14.01
2018-05-17T06:48:30.927Z,13.86
2018-05-17T06:49:30.915Z,13.93
2018-05-17T06:50:30.898Z,14.08
2018-05-17T06:51:30.873Z,14.23
2018-05-17T06:52:30.866Z,14.15
2018-05-17T06:53:30.847Z,14.00
2018-05-17T06:54:30.831Z,14.01
2018-05-17T06:55:30.821Z,13.97
2018-05-17T06:56:30.802Z,14.01
2018-05-17T06:57:30.789Z,13.97
2018-05-17T06:58:30.785Z,13.97
2018-05-17T06:59:30.757Z,14.00
2018-05-17T07:00:30.801Z,14.09
2018-05-17T07:01:30.730Z,14.15
2018-05-17T07:02:30.715Z,14.27
2018-05-17T07:03:30.698Z,14.09
2018-05-17T07:04:30.687Z,14.19
2018-05-17T07:05:30.680Z,14.26
2018-05-17T07:06:30.656Z,14.22
2018-05-17T07:07:30.643Z,14.23
2018-05-17T07:08:30.628Z,14.18
2018-05-17T07:09:30.618Z,14.31
2018-05-17T07:10:30.669Z,14.21
2018-05-17T07:11:30.583Z,14.27
2018-05-17T07:12:30.571Z,14.36
2018-05-17T07:13:30.551Z,14.12
2018-05-17T07:14:30.542Z,14.16
2018-05-17T07:15:30.528Z,14.19
2018-05-17T07:16:30.510Z,14.22
2018-05-17T07:17:30.497Z,14.22
2018-05-17T07:18:30.719Z,14.13
2018-05-17T07:19:30.464Z,14.09
2018-05-17T07:20:30.455Z,14.13
2018-05-17T07:21:30.438Z,14.26
2018-05-17T07:22:30.433Z,14.49
2018-05-17T07:23:30.413Z,14.69
2018-05-17T07:24:30.401Z,14.85
2018-05-17T07:25:30.378Z,15.27
2018-05-17T07:26:30.371Z,15.45
2018-05-17T07:27:30.355Z,15.54
2018-05-17T07:28:30.342Z,15.59
2018-05-17T07:29:30.330Z,15.59
2018-05-17T07:30:30.308Z,15.72
2018-05-17T07:31:30.301Z,15.91
2018-05-17T07:32:30.288Z,15.90
2018-05-17T07:33:30.278Z,16.10
2018-05-17T07:34:30.263Z,16.03
2018-05-17T07:35:30.251Z,16.34
2018-05-17T07:36:30.235Z,16.29
2018-05-17T07:37:30.221Z,16.03
2018-05-17T07:38:30.209Z,15.99
2018-05-17T07:39:30.195Z,15.93
2018-05-17T07:40:30.180Z,15.51
2018-05-17T07:41:30.173Z,15.30
2018-05-17T07:42:30.158Z,15.19
2018-05-17T07:43:30.151Z,15.22
2018-05-17T07:44:30.128Z,15.27
2018-05-17T07:45:30.125Z,15.45
2018-05-17T07:46:30.107Z,15.30
2018-05-17T07:47:30.087Z,15.40
2018-05-17T07:48:30.080Z,15.44
2018-05-17T07:49:30.060Z,15.33
2018-05-17T07:50:30.047Z,15.66
2018-05-17T07:51:30.041Z,15.88
2018-05-17T07:52:30.032Z,15.87
2018-05-17T07:53:30.016Z,15.88
2018-05-17T07:54:30.010Z,16.16
2018-05-17T07:55:30.013Z,16.51
2018-05-17T07:56:29.977Z,16.92
2018-05-17T07:57:29.971Z,17.20
2018-05-17T07:58:29.958Z,17.35
2018-05-17T07:59:29.942Z,17.38
2018-05-17T08:00:29.974Z,17.45
2018-05-17T08:01:29.913Z,17.46
2018-05-17T08:02:29.903Z,17.65
2018-05-17T08:03:29.894Z,18.13
2018-05-17T08:04:29.891Z,18.15
2018-05-17T08:05:29.865Z,18.30
2018-05-17T08:06:29.861Z,18.49
2018-05-17T08:07:29.851Z,18.39
2018-05-17T08:08:29.837Z,18.28
2018-05-17T08:09:29.871Z,18.34
2018-05-17T08:10:29.823Z,18.15
2018-05-17T08:11:29.813Z,17.75
2018-05-17T08:12:29.800Z,17.52
2018-05-17T08:13:29.794Z,17.22
2018-05-17T08:14:29.781Z,17.04
2018-05-17T08:15:29.765Z,16.76
2018-05-17T08:16:29.756Z,16.54
2018-05-17T08:17:29.746Z,16.55
2018-05-17T08:18:29.730Z,16.47
2018-05-17T08:19:29.720Z,16.49
2018-05-17T08:20:29.707Z,16.13
2018-05-17T08:21:29.697Z,16.09
2018-05-17T08:22:29.692Z,15.98
2018-05-17T08:23:29.683Z,15.91
2018-05-17T08:24:29.663Z,15.91
2018-05-17T08:25:29.653Z,15.93
2018-05-17T08:26:29.647Z,16.09
2018-05-17T08:27:29.627Z,16.28
2018-05-17T08:28:29.621Z,16.32
2018-05-17T08:29:29.609Z,16.34
2018-05-17T08:30:29.599Z,16.54
2018-05-17T08:31:29.577Z,16.37
2018-05-17T08:32:29.569Z,16.52
2018-05-17T08:33:29.558Z,16.59
2018-05-17T08:34:29.548Z,16.72
2018-05-17T08:35:29.541Z,17.10
2018-05-17T08:36:29.700Z,16.84
2018-05-17T08:37:29.515Z,16.67
2018-05-17T08:38:29.521Z,16.62
2018-05-17T08:39:29.494Z,16.61
2018-05-17T08:40:29.482Z,16.58
2018-05-17T08:41:29.468Z,16.74
2018-05-17T08:42:29.473Z,16.74
2018-05-17T08:43:29.446Z,16.69
2018-05-17T08:44:29.442Z,16.72
2018-05-17T08:45:29.423Z,17.32
2018-05-17T08:46:29.523Z,17.27
2018-05-17T08:47:29.408Z,17.49
2018-05-17T08:48:29.487Z,17.43
2018-05-17T08:49:29.382Z,17.65
2018-05-17T08:50:29.373Z,18.20
2018-05-17T08:51:29.367Z,19.38
2018-05-17T08:52:29.501Z,19.89
2018-05-17T08:53:29.354Z,20.61
2018-05-17T08:54:29.443Z,20.22
2018-05-17T08:55:29.321Z,20.15
2018-05-17T08:56:29.319Z,21.13
2018-05-17T08:57:29.308Z,21.60
2018-05-17T08:58:29.311Z,22.23
2018-05-17T08:59:29.296Z,22.88
2018-05-17T09:00:29.294Z,22.81
2018-05-17T09:01:29.288Z,22.59
2018-05-17T09:02:29.281Z,22.21
2018-05-17T09:03:29.273Z,21.18
2018-05-17T09:04:29.266Z,20.49
2018-05-17T09:05:29.258Z,21.20
2018-05-17T09:06:29.254Z,21.96
2018-05-17T09:07:29.253Z,22.46
2018-05-17T09:08:29.254Z,23.07
2018-05-17T09:09:29.239Z,23.15
2018-05-17T09:10:29.239Z,23.60
2018-05-17T09:11:29.229Z,23.94
2018-05-17T09:12:29.223Z,23.85
2018-05-17T09:13:29.333Z,23.78
2018-05-17T09:14:29.216Z,23.85
2018-05-17T09:15:29.210Z,24.01
2018-05-17T09:16:29.200Z,24.47
2018-05-17T09:17:29.200Z,24.66
2018-05-17T09:18:29.203Z,24.82
2018-05-17T09:19:29.196Z,24.59
2018-05-17T09:20:29.265Z,24.48
2018-05-17T09:21:29.185Z,24.63
2018-05-17T09:22:29.178Z,24.91
2018-05-17T09:23:29.181Z,25.33
2018-05-17T09:24:29.171Z,25.23
2018-05-17T09:25:29.168Z,24.36
2018-05-17T09:26:29.161Z,24.53
2018-05-17T09:27:29.169Z,24.19
2018-05-17T09:28:29.162Z,23.55
2018-05-17T09:29:29.160Z,23.22
2018-05-17T09:30:29.152Z,23.45
2018-05-17T09:31:29.145Z,24.03
2018-05-17T09:32:29.142Z,24.82
2018-05-17T09:33:29.142Z,25.18
2018-05-17T09:34:29.140Z,25.73
2018-05-17T09:35:29.123Z,25.92
2018-05-17T09:36:29.121Z,25.49
2018-05-17T09:37:29.117Z,25.16
2018-05-17T09:38:29.110Z,23.96
2018-05-17T09:39:29.104Z,23.17
2018-05-17T09:40:29.098Z,22.49
2018-05-17T09:41:29.130Z,22.28
2018-05-17T09:42:29.091Z,22.64
2018-05-17T09:43:29.085Z,21.90
2018-05-17T09:44:29.088Z,21.03
2018-05-17T09:45:29.071Z,20.93
2018-05-17T09:46:29.070Z,20.63
2018-05-17T09:47:29.084Z,20.34
2018-05-17T09:48:29.053Z,21.53
2018-05-17T09:49:29.047Z,22.71
2018-05-17T09:50:29.042Z,23.70
2018-05-17T09:51:29.040Z,24.38
2018-05-17T09:52:29.024Z,24.56
2018-05-17T09:53:29.011Z,24.22
2018-05-17T09:55:29.008Z,24.25
2018-05-17T09:56:28.999Z,24.56
2018-05-17T09:57:28.996Z,24.93
2018-05-17T09:58:28.977Z,25.28
2018-05-17T09:59:28.983Z,25.49
2018-05-17T10:00:28.969Z,26.04
2018-05-17T10:01:28.960Z,26.23
2018-05-17T10:02:28.954Z,25.89
2018-05-17T10:03:28.947Z,25.68
2018-05-17T10:04:28.935Z,25.00
2018-05-17T10:05:28.940Z,25.63
2018-05-17T10:06:28.922Z,25.22
2018-05-17T10:07:28.922Z,25.43
2018-05-17T10:08:28.916Z,25.74
2018-05-17T10:09:28.912Z,25.81
2018-05-17T10:10:28.898Z,25.70
2018-05-17T10:11:28.890Z,26.04
2018-05-17T10:12:28.878Z,26.30
2018-05-17T10:13:28.867Z,26.41
2018-05-17T10:14:28.874Z,26.08
2018-05-17T10:15:28.879Z,26.21
2018-05-17T10:16:28.847Z,26.07
2018-05-17T10:17:28.847Z,26.36
2018-05-17T10:18:28.834Z,24.60
2018-05-17T10:19:28.828Z,25.08
2018-05-17T10:20:28.812Z,25.19
2018-05-17T10:21:28.812Z,25.73
2018-05-17T10:22:28.806Z,25.82
2018-05-17T10:23:28.796Z,26.10
2018-05-17T10:24:28.790Z,25.33
2018-05-17T10:25:28.782Z,24.29
2018-05-17T10:26:28.771Z,23.84
2018-05-17T10:27:28.761Z,23.34
2018-05-17T10:28:28.751Z,22.41
2018-05-17T10:29:28.829Z,23.14
2018-05-17T10:31:28.729Z,24.08
2018-05-17T10:32:28.720Z,24.01
2018-05-17T10:33:28.714Z,22.78
2018-05-17T10:34:28.709Z,22.43
2018-05-17T10:35:28.701Z,22.74
2018-05-17T10:36:28.690Z,23.23
2018-05-17T10:37:28.687Z,22.52
2018-05-17T10:38:28.668Z,22.36
2018-05-17T10:39:28.662Z,22.52
2018-05-17T10:42:28.637Z,22.15
2018-05-17T10:43:28.628Z,22.15
2018-05-17T10:44:28.622Z,22.30
2018-05-17T10:45:28.760Z,22.49
2018-05-17T10:46:28.602Z,22.62
2018-05-17T10:47:28.687Z,22.52
2018-05-17T10:48:28.581Z,22.51
2018-05-17T10:49:28.625Z,22.61
2018-05-17T10:50:28.568Z,22.77
2018-05-17T10:51:28.557Z,22.81
2018-05-17T10:52:28.548Z,22.88
2018-05-17T10:53:28.583Z,22.76
2018-05-17T10:54:28.656Z,22.27
2018-05-17T10:55:28.572Z,22.48
2018-05-17T10:56:28.513Z,21.71
2018-05-17T10:57:28.503Z,21.58
2018-05-17T10:58:28.496Z,21.75
2018-05-17T10:59:28.487Z,21.96
2018-05-17T11:00:28.475Z,22.27
2018-05-17T11:01:28.471Z,22.43
2018-05-17T11:02:28.459Z,22.41
2018-05-17T11:03:28.448Z,22.46
2018-05-17T11:04:28.438Z,22.49
2018-05-17T11:05:28.429Z,22.13
2018-05-17T11:06:28.422Z,22.30
2018-05-17T11:07:28.413Z,22.48
2018-05-17T11:08:28.403Z,22.93
2018-05-17T11:09:28.401Z,23.10
2018-05-17T11:10:28.390Z,23.34
2018-05-17T11:11:28.378Z,23.55
2018-05-17T11:12:28.367Z,23.31
2018-05-17T11:13:28.359Z,23.22
2018-05-17T11:14:28.352Z,23.15
2018-05-17T11:15:28.342Z,23.22
2018-05-17T11:16:28.330Z,23.14
2018-05-17T11:17:28.319Z,23.14
2018-05-17T11:18:28.323Z,23.22
2018-05-17T11:19:28.307Z,23.11
2018-05-17T11:20:28.294Z,22.91
2018-05-17T11:21:28.287Z,23.14
2018-05-17T11:22:28.281Z,23.07
2018-05-17T11:23:28.271Z,22.86
2018-05-17T11:24:28.270Z,22.51
2018-05-17T11:25:28.255Z,22.03
2018-05-17T11:26:28.313Z,22.30
2018-05-17T11:27:28.233Z,22.55
2018-05-17T11:28:28.238Z,22.62
2018-05-17T11:29:28.218Z,22.46
2018-05-17T11:30:28.214Z,22.12
2018-05-17T11:31:28.197Z,22.41
2018-05-17T11:32:28.191Z,22.59
2018-05-17T11:33:28.186Z,22.55
2018-05-17T11:34:28.281Z,22.48
2018-05-17T11:35:28.169Z,22.64
2018-05-17T11:36:28.163Z,22.51
2018-05-17T11:37:28.143Z,22.61
2018-05-17T11:38:28.170Z,22.85
2018-05-17T11:39:28.129Z,23.17
2018-05-17T11:40:28.117Z,23.29
2018-05-17T11:41:28.107Z,23.25
2018-05-17T11:42:28.108Z,23.61
2018-05-17T11:43:28.098Z,23.44
2018-05-17T11:44:28.078Z,23.71
2018-05-17T11:45:28.079Z,23.73
2018-05-17T11:46:28.063Z,23.66
2018-05-17T11:47:28.063Z,23.54
2018-05-17T11:48:28.145Z,23.51
2018-05-17T11:49:28.043Z,23.66
2018-05-17T11:50:28.078Z,23.66
2018-05-17T11:51:28.028Z,23.96
2018-05-17T11:52:28.018Z,24.01
2018-05-17T11:53:28.009Z,23.61
2018-05-17T11:54:28.033Z,23.59
2018-05-17T11:55:27.992Z,22.95
2018-05-17T11:56:27.983Z,23.07
2018-05-17T11:57:27.973Z,23.21
2018-05-17T11:58:27.962Z,23.17
2018-05-17T11:59:27.950Z,22.91
2018-05-17T12:00:27.951Z,22.61
2018-05-17T12:01:27.941Z,22.58
2018-05-17T12:02:27.927Z,22.64
2018-05-17T12:03:27.922Z,22.52
2018-05-17T12:04:27.913Z,22.27
2018-05-17T12:05:27.903Z,22.23
2018-05-17T12:06:27.899Z,22.36
2018-05-17T12:07:27.902Z,22.13
2018-05-17T12:08:27.880Z,22.46
2018-05-17T12:09:27.868Z,22.51
2018-05-17T12:10:27.858Z,22.66
2018-05-17T12:11:27.848Z,22.56
2018-05-17T12:12:27.838Z,22.51
2018-05-17T12:13:27.832Z,22.46
2018-05-17T12:14:27.832Z,22.78
2018-05-17T12:15:27.818Z,22.77
2018-05-17T12:16:27.806Z,22.56
2018-05-17T12:17:27.799Z,22.68
2018-05-17T12:18:27.792Z,22.58
2018-05-17T12:19:27.782Z,22.61
2018-05-17T12:20:27.772Z,22.51
2018-05-17T12:21:27.765Z,22.56
2018-05-17T12:22:27.755Z,22.73
2018-05-17T12:23:27.738Z,22.68
2018-05-17T12:24:27.736Z,23.07
2018-05-17T12:25:27.730Z,23.37
2018-05-17T12:26:27.723Z,23.33
2018-05-17T12:27:27.714Z,23.22
2018-05-17T12:28:27.700Z,23.18
2018-05-17T12:29:27.692Z,22.92
2018-05-17T12:30:27.678Z,23.13
2018-05-17T12:31:27.688Z,23.36
2018-05-17T12:32:27.669Z,23.39
2018-05-17T12:33:27.657Z,23.52
2018-05-17T12:34:27.649Z,23.69
2018-05-17T12:35:27.642Z,23.60
2018-05-17T12:36:27.635Z,23.39
2018-05-17T12:37:27.617Z,23.07
2018-05-17T12:38:27.616Z,23.08
2018-05-17T12:39:27.605Z,22.91
2018-05-17T12:40:27.594Z,22.92
2018-05-17T12:41:27.588Z,23.01
2018-05-17T12:42:27.581Z,22.95
2018-05-17T12:43:27.572Z,22.73
2018-05-17T12:44:27.562Z,22.88
2018-05-17T12:45:27.550Z,23.01
2018-05-17T12:46:27.552Z,23.23
2018-05-17T12:47:27.543Z,23.36
2018-05-17T12:48:27.524Z,23.45
2018-05-17T12:49:27.518Z,23.88
2018-05-17T12:50:27.508Z,23.86
2018-05-17T12:51:27.498Z,23.96
2018-05-17T12:52:27.492Z,23.88
2018-05-17T12:53:27.493Z,23.39
2018-05-17T12:54:27.482Z,23.11
2018-05-17T12:55:27.465Z,22.78
2018-05-17T12:56:27.461Z,22.93